Haukur — OZ2119 — position and weather

sailwx.info

Track history (hours):
 
Tides and Currents Weather Stations Pressure Air Temp Water Temp Dewpoint Dewpoint Depression Visibility Wind Speed Wind Dir Waves Ship Positions

Haukur

Last reported at 2015-Jul-06 17:32 UTC. Time now 2015-Jul-06 20:02 UTC.
Position N 64°12' W 021°57'.

Length 75 m; draft 3.9 m.

Type: Cargo ship. MMSI: 231812000.

Date/timePositionNaut miles runAvg speedWind from/ knotsBaromVisibWave heightAir tempDewpointWater temp
2015-Jul-06 17:32N 64°12' W 021°57'3 0.1
2015-Jul-05 08:34N 64°10' W 021°52'  
2015-Jul-01 05:33N 59°07' E 003°37'9 9.1
2015-Jul-01 04:33N 59°01' E 003°50'9 9.0
2015-Jul-01 03:33N 58°55' E 004°04'18 8.8
2015-Jul-01 01:32N 58°44' E 004°30'9 8.3
2015-Jul-01 00:28N 58°38' E 004°44'8 8.7
2015-Jun-30 23:30N 58°33' E 004°56'9 9.0
2015-Jun-30 22:33N 58°28' E 005°09'9 9.1
2015-Jun-30 21:33N 58°23' E 005°24'9 9.4
2015-Jun-30 20:33N 58°18' E 005°40'9 9.4
2015-Jun-30 19:34N 58°14' E 005°55'142 8.2
2015-Jun-30 02:15N 57°50' E 010°19'5 6.9
2015-Jun-30 01:33N 57°49' E 010°28'6 6.4
2015-Jun-30 00:33N 57°49' E 010°40'6 6.5
2015-Jun-29 23:34N 57°47' E 010°51'8 7.8
2015-Jun-29 22:33N 57°41' E 011°02'8 7.5
2015-Jun-29 21:33N 57°36' E 011°12'8 8.1
2015-Jun-29 20:33N 57°30' E 011°23'8 8.3
2015-Jun-29 19:33N 57°23' E 011°31'8 8.3
2015-Jun-29 18:33N 57°16' E 011°37'8 8.2
2015-Jun-29 17:34N 57°08' E 011°43'9 8.6
2015-Jun-29 16:33N 57°00' E 011°49'9 8.5
2015-Jun-29 15:33N 56°53' E 011°56'9 8.6
2015-Jun-29 14:33N 56°45' E 012°02'9 8.6
2015-Jun-29 13:33N 56°37' E 012°09'9 8.8
2015-Jun-29 12:33N 56°29' E 012°15'9 8.8
2015-Jun-29 11:33N 56°21' E 012°22'10 9.7
2015-Jun-29 10:34N 56°12' E 012°29'1010.0
2015-Jun-29 09:34N 56°04' E 012°39'9 9.2
2015-Jun-29 08:34N 55°55' E 012°44'9 9.0
2015-Jun-29 07:33N 55°46' E 012°42'10 9.5
2015-Jun-29 06:33N 55°36' E 012°42'9 8.8
2015-Jun-29 05:34N 55°28' E 012°43'9 8.9
2015-Jun-29 04:34N 55°19' E 012°41'8 8.2
2015-Jun-29 03:34N 55°16' E 012°54'9 8.8
2015-Jun-29 02:33N 55°16' E 013°10'9 8.7
2015-Jun-29 01:33N 55°15' E 013°25'17 8.4
2015-Jun-28 23:34N 55°14' E 013°55'9 8.7
2015-Jun-28 22:33N 55°13' E 014°10'8 7.7
2015-Jun-28 21:34N 55°17' E 014°22'9 8.8
2015-Jun-28 20:30N 55°24' E 014°32'8 8.5
2015-Jun-28 19:33N 55°29' E 014°43'9 8.6
2015-Jun-28 18:31N 55°33' E 014°57'9 8.5
2015-Jun-28 17:29N 55°38' E 015°10'8 8.6
2015-Jun-28 16:33N 55°42' E 015°22'10 8.6
2015-Jun-28 15:23N 55°47' E 015°38'  
Track history (hours):
 
Tides and Currents Weather Stations Pressure Air Temp Water Temp Dewpoint Dewpoint Depression Visibility Wind Speed Wind Dir Waves Ship Positions

Haukur

Last reported at 2015-Jul-06 17:32 UTC. Time now 2015-Jul-06 20:02 UTC.
Position N 64°12' W 021°57'.

Length 75 m; draft 3.9 m.

Type: Cargo ship. MMSI: 231812000.

Date/timePositionNaut miles runAvg speedWind from/ knotsBaromVisibWave heightAir tempDewpointWater temp
2015-Jul-06 17:32N 64°12' W 021°57'3 0.1
2015-Jul-05 08:34N 64°10' W 021°52'  
2015-Jul-01 05:33N 59°07' E 003°37'9 9.1
2015-Jul-01 04:33N 59°01' E 003°50'9 9.0
2015-Jul-01 03:33N 58°55' E 004°04'18 8.8
2015-Jul-01 01:32N 58°44' E 004°30'9 8.3
2015-Jul-01 00:28N 58°38' E 004°44'8 8.7
2015-Jun-30 23:30N 58°33' E 004°56'9 9.0
2015-Jun-30 22:33N 58°28' E 005°09'9 9.1
2015-Jun-30 21:33N 58°23' E 005°24'9 9.4
2015-Jun-30 20:33N 58°18' E 005°40'9 9.4
2015-Jun-30 19:34N 58°14' E 005°55'142 8.2
2015-Jun-30 02:15N 57°50' E 010°19'5 6.9
2015-Jun-30 01:33N 57°49' E 010°28'6 6.4
2015-Jun-30 00:33N 57°49' E 010°40'6 6.5
2015-Jun-29 23:34N 57°47' E 010°51'8 7.8
2015-Jun-29 22:33N 57°41' E 011°02'8 7.5
2015-Jun-29 21:33N 57°36' E 011°12'8 8.1
2015-Jun-29 20:33N 57°30' E 011°23'8 8.3
2015-Jun-29 19:33N 57°23' E 011°31'8 8.3
2015-Jun-29 18:33N 57°16' E 011°37'8 8.2
2015-Jun-29 17:34N 57°08' E 011°43'9 8.6
2015-Jun-29 16:33N 57°00' E 011°49'9 8.5
2015-Jun-29 15:33N 56°53' E 011°56'9 8.6
2015-Jun-29 14:33N 56°45' E 012°02'9 8.6
2015-Jun-29 13:33N 56°37' E 012°09'9 8.8
2015-Jun-29 12:33N 56°29' E 012°15'9 8.8
2015-Jun-29 11:33N 56°21' E 012°22'10 9.7
2015-Jun-29 10:34N 56°12' E 012°29'1010.0
2015-Jun-29 09:34N 56°04' E 012°39'9 9.2
2015-Jun-29 08:34N 55°55' E 012°44'9 9.0
2015-Jun-29 07:33N 55°46' E 012°42'10 9.5
2015-Jun-29 06:33N 55°36' E 012°42'9 8.8
2015-Jun-29 05:34N 55°28' E 012°43'9 8.9
2015-Jun-29 04:34N 55°19' E 012°41'8 8.2
2015-Jun-29 03:34N 55°16' E 012°54'9 8.8
2015-Jun-29 02:33N 55°16' E 013°10'9 8.7
2015-Jun-29 01:33N 55°15' E 013°25'17 8.4
2015-Jun-28 23:34N 55°14' E 013°55'9 8.7
2015-Jun-28 22:33N 55°13' E 014°10'8 7.7
2015-Jun-28 21:34N 55°17' E 014°22'9 8.8
2015-Jun-28 20:30N 55°24' E 014°32'8 8.5
2015-Jun-28 19:33N 55°29' E 014°43'9 8.6
2015-Jun-28 18:31N 55°33' E 014°57'9 8.5
2015-Jun-28 17:29N 55°38' E 015°10'8 8.6
2015-Jun-28 16:33N 55°42' E 015°22'10 8.6
2015-Jun-28 15:23N 55°47' E 015°38'  

Dump ship's entire track history